sensor_id;sensor_type;location;lat;lon;timestamp;pressure;altitude;pressure_sealevel;temperature;humidity
82416;BME280;72058;47.782;10.618;2023-11-18T00:01:14;94171.81;;;4.23;79.45
82416;BME280;72058;47.782;10.618;2023-11-18T00:03:39;94177.94;;;4.13;79.88
82416;BME280;72058;47.782;10.618;2023-11-18T00:06:05;94175.25;;;4.13;79.66
82416;BME280;72058;47.782;10.618;2023-11-18T00:08:30;94175.78;;;4.10;79.72
82416;BME280;72058;47.782;10.618;2023-11-18T00:10:56;94177.94;;;4.08;79.80
82416;BME280;72058;47.782;10.618;2023-11-18T00:13:21;94170.69;;;4.14;79.44
82416;BME280;72058;47.782;10.618;2023-11-18T00:15:47;94170.97;;;4.17;79.24
82416;BME280;72058;47.782;10.618;2023-11-18T00:18:13;94168.50;;;4.11;79.00
82416;BME280;72058;47.782;10.618;2023-11-18T00:20:38;94175.19;;;3.98;79.41
82416;BME280;72058;47.782;10.618;2023-11-18T00:23:04;94168.69;;;3.94;79.71
82416;BME280;72058;47.782;10.618;2023-11-18T00:25:32;94175.19;;;3.98;79.53
82416;BME280;72058;47.782;10.618;2023-11-18T00:27:59;94182.44;;;3.98;79.33
82416;BME280;72058;47.782;10.618;2023-11-18T00:30:24;94183.25;;;3.98;79.83
82416;BME280;72058;47.782;10.618;2023-11-18T00:32:49;94174.38;;;3.98;79.39
82416;BME280;72058;47.782;10.618;2023-11-18T00:35:14;94179.78;;;4.03;78.99
82416;BME280;72058;47.782;10.618;2023-11-18T00:37:40;94177.88;;;3.98;79.35
82416;BME280;72058;47.782;10.618;2023-11-18T00:40:07;94175.19;;;3.93;79.24
82416;BME280;72058;47.782;10.618;2023-11-18T00:42:32;94172.50;;;4.03;78.67
82416;BME280;72058;47.782;10.618;2023-11-18T00:44:58;94173.56;;;3.97;78.74
82416;BME280;72058;47.782;10.618;2023-11-18T00:47:23;94168.38;;;3.80;79.50
82416;BME280;72058;47.782;10.618;2023-11-18T00:49:49;94166.47;;;3.81;79.79
82416;BME280;72058;47.782;10.618;2023-11-18T00:52:15;94167.31;;;3.87;79.25
82416;BME280;72058;47.782;10.618;2023-11-18T00:54:40;94165.69;;;3.80;78.92
82416;BME280;72058;47.782;10.618;2023-11-18T00:57:05;94158.91;;;3.73;79.32
82416;BME280;72058;47.782;10.618;2023-11-18T00:59:31;94167.03;;;3.83;79.22
82416;BME280;72058;47.782;10.618;2023-11-18T01:01:56;94163.53;;;3.83;79.20
82416;BME280;72058;47.782;10.618;2023-11-18T01:04:21;94172.13;;;3.79;79.36
82416;BME280;72058;47.782;10.618;2023-11-18T01:06:47;94165.38;;;3.77;79.43
82416;BME280;72058;47.782;10.618;2023-11-18T01:09:13;94169.75;;;3.88;79.47
82416;BME280;72058;47.782;10.618;2023-11-18T01:11:39;94177.91;;;4.03;78.86
82416;BME280;72058;47.782;10.618;2023-11-18T01:14:05;94190.81;;;4.01;79.13
82416;BME280;72058;47.782;10.618;2023-11-18T01:16:31;94185.75;;;4.10;78.60
82416;BME280;72058;47.782;10.618;2023-11-18T01:18:56;94188.66;;;3.98;78.86
82416;BME280;72058;47.782;10.618;2023-11-18T01:21:22;94192.16;;;3.99;78.65
82416;BME280;72058;47.782;10.618;2023-11-18T01:23:48;94181.16;;;4.10;78.82
82416;BME280;72058;47.782;10.618;2023-11-18T01:26:14;94184.91;;;4.04;78.66
82416;BME280;72058;47.782;10.618;2023-11-18T01:28:40;94192.22;;;4.09;78.76
82416;BME280;72058;47.782;10.618;2023-11-18T01:31:10;94181.97;;;4.11;79.02
82416;BME280;72058;47.782;10.618;2023-11-18T01:33:37;94180.38;;;4.15;78.76
82416;BME280;72058;47.782;10.618;2023-11-18T01:36:04;94186.59;;;4.20;78.59
82416;BME280;72058;47.782;10.618;2023-11-18T01:38:29;94181.53;;;4.34;78.10
82416;BME280;72058;47.782;10.618;2023-11-18T01:40:56;94190.16;;;4.36;77.66
82416;BME280;72058;47.782;10.618;2023-11-18T01:43:21;94184.72;;;4.21;78.50
82416;BME280;72058;47.782;10.618;2023-11-18T01:45:47;94189.81;;;4.17;78.43
82416;BME280;72058;47.782;10.618;2023-11-18T01:48:13;94190.41;;;4.25;78.07
82416;BME280;72058;47.782;10.618;2023-11-18T01:50:40;94186.91;;;4.29;78.11
82416;BME280;72058;47.782;10.618;2023-11-18T01:53:07;94199.28;;;4.25;78.61
82416;BME280;72058;47.782;10.618;2023-11-18T01:55:33;94190.91;;;4.22;78.69
82416;BME280;72058;47.782;10.618;2023-11-18T01:58:00;94192.53;;;4.28;78.28
82416;BME280;72058;47.782;10.618;2023-11-18T02:00:28;94194.72;;;4.26;78.40
82416;BME280;72058;47.782;10.618;2023-11-18T02:02:55;94189.34;;;4.31;78.39
82416;BME280;72058;47.782;10.618;2023-11-18T02:05:21;94198.72;;;4.23;78.92
82416;BME280;72058;47.782;10.618;2023-11-18T02:07:46;94204.94;;;4.24;78.83
82416;BME280;72058;47.782;10.618;2023-11-18T02:10:12;94207.69;;;4.39;78.44
82416;BME280;72058;47.782;10.618;2023-11-18T02:13:12;94213.38;;;4.47;77.65
82416;BME280;72058;47.782;10.618;2023-11-18T02:15:43;94203.97;;;4.50;77.74
82416;BME280;72058;47.782;10.618;2023-11-18T02:18:10;94209.03;;;4.46;78.45
82416;BME280;72058;47.782;10.618;2023-11-18T02:20:37;94207.38;;;4.35;78.51
82416;BME280;72058;47.782;10.618;2023-11-18T02:23:04;94211.16;;;4.34;78.73
82416;BME280;72058;47.782;10.618;2023-11-18T02:25:33;94206.88;;;4.38;78.52
82416;BME280;72058;47.782;10.618;2023-11-18T02:27:59;94204.16;;;4.33;79.26
82416;BME280;72058;47.782;10.618;2023-11-18T02:30:24;94206.56;;;4.30;79.30
82416;BME280;72058;47.782;10.618;2023-11-18T02:33:22;94206.28;;;4.26;79.46
82416;BME280;72058;47.782;10.618;2023-11-18T02:35:57;94200.34;;;4.29;79.34
82416;BME280;72058;47.782;10.618;2023-11-18T02:38:31;94196.66;;;4.40;79.20
82416;BME280;72058;47.782;10.618;2023-11-18T02:41:05;94188.25;;;4.32;79.37
82416;BME280;72058;47.782;10.618;2023-11-18T02:43:32;94193.91;;;4.25;79.63
82416;BME280;72058;47.782;10.618;2023-11-18T02:45:58;94193.84;;;4.20;80.23
82416;BME280;72058;47.782;10.618;2023-11-18T02:48:26;94194.16;;;4.24;80.32
82416;BME280;72058;47.782;10.618;2023-11-18T02:50:52;94190.91;;;4.16;80.65
82416;BME280;72058;47.782;10.618;2023-11-18T02:53:17;94201.97;;;4.25;80.40
82416;BME280;72058;47.782;10.618;2023-11-18T02:55:43;94195.00;;;4.34;79.81
82416;BME280;72058;47.782;10.618;2023-11-18T02:58:09;94192.22;;;4.19;80.64
82416;BME280;72058;47.782;10.618;2023-11-18T03:00:34;94195.97;;;4.08;81.16
82416;BME280;72058;47.782;10.618;2023-11-18T03:02:59;94200.03;;;4.15;80.88
82416;BME280;72058;47.782;10.618;2023-11-18T03:05:25;94209.19;;;4.19;80.54
82416;BME280;72058;47.782;10.618;2023-11-18T03:07:51;94206.78;;;4.18;80.63
82416;BME280;72058;47.782;10.618;2023-11-18T03:10:21;94211.38;;;4.17;80.74
82416;BME280;72058;47.782;10.618;2023-11-18T03:12:51;94219.19;;;4.24;80.28
82416;BME280;72058;47.782;10.618;2023-11-18T03:15:17;94216.78;;;4.28;80.04
82416;BME280;72058;47.782;10.618;2023-11-18T03:17:47;94222.19;;;4.33;79.39
82416;BME280;72058;47.782;10.618;2023-11-18T03:20:20;94213.81;;;4.29;79.89
82416;BME280;72058;47.782;10.618;2023-11-18T03:22:48;94217.56;;;4.23;79.91
82416;BME280;72058;47.782;10.618;2023-11-18T03:25:13;94223.72;;;4.13;80.23
82416;BME280;72058;47.782;10.618;2023-11-18T03:27:39;94219.44;;;4.17;80.14
82416;BME280;72058;47.782;10.618;2023-11-18T03:30:06;94223.78;;;4.24;79.71
82416;BME280;72058;47.782;10.618;2023-11-18T03:32:33;94225.97;;;4.37;79.19
82416;BME280;72058;47.782;10.618;2023-11-18T03:34:59;94232.72;;;4.34;78.58
82416;BME280;72058;47.782;10.618;2023-11-18T03:37:25;94232.41;;;4.26;78.95
82416;BME280;72058;47.782;10.618;2023-11-18T03:39:51;94232.97;;;4.33;79.04
82416;BME280;72058;47.782;10.618;2023-11-18T03:42:17;94226.72;;;4.22;79.31
82416;BME280;72058;47.782;10.618;2023-11-18T03:44:42;94231.56;;;4.20;79.27
82416;BME280;72058;47.782;10.618;2023-11-18T03:47:07;94226.16;;;4.20;79.07
82416;BME280;72058;47.782;10.618;2023-11-18T03:49:33;94223.25;;;4.27;78.81
82416;BME280;72058;47.782;10.618;2023-11-18T03:51:58;94223.50;;;4.25;78.54
82416;BME280;72058;47.782;10.618;2023-11-18T03:54:24;94236.44;;;4.23;78.76
82416;BME280;72058;47.782;10.618;2023-11-18T03:56:50;94229.41;;;4.22;78.69
82416;BME280;72058;47.782;10.618;2023-11-18T03:59:15;94226.22;;;4.25;78.51
82416;BME280;72058;47.782;10.618;2023-11-18T04:01:40;94224.53;;;4.19;78.64
82416;BME280;72058;47.782;10.618;2023-11-18T04:04:06;94222.78;;;4.40;77.55
82416;BME280;72058;47.782;10.618;2023-11-18T04:06:31;94216.81;;;4.38;77.07
82416;BME280;72058;47.782;10.618;2023-11-18T04:08:57;94222.25;;;4.43;77.14
82416;BME280;72058;47.782;10.618;2023-11-18T04:11:22;94214.63;;;4.30;77.72
82416;BME280;72058;47.782;10.618;2023-11-18T04:13:48;94212.81;;;4.40;76.99
82416;BME280;72058;47.782;10.618;2023-11-18T04:16:14;94215.44;;;4.30;77.32
82416;BME280;72058;47.782;10.618;2023-11-18T04:18:44;94220.31;;;4.33;77.42
82416;BME280;72058;47.782;10.618;2023-11-18T04:21:11;94218.66;;;4.27;77.64
82416;BME280;72058;47.782;10.618;2023-11-18T04:23:40;94219.28;;;4.44;76.85
82416;BME280;72058;47.782;10.618;2023-11-18T04:26:06;94221.13;;;4.34;77.23
82416;BME280;72058;47.782;10.618;2023-11-18T04:28:33;94216.44;;;4.14;78.16
82416;BME280;72058;47.782;10.618;2023-11-18T04:30:58;94225.56;;;4.08;77.98
82416;BME280;72058;47.782;10.618;2023-11-18T04:33:24;94227.41;;;4.02;78.50
82416;BME280;72058;47.782;10.618;2023-11-18T04:35:50;94226.09;;;4.05;78.09
82416;BME280;72058;47.782;10.618;2023-11-18T04:38:16;94228.34;;;4.23;77.87
82416;BME280;72058;47.782;10.618;2023-11-18T04:40:41;94229.66;;;4.15;78.13
82416;BME280;72058;47.782;10.618;2023-11-18T04:43:10;94229.03;;;4.03;78.33
82416;BME280;72058;47.782;10.618;2023-11-18T04:45:36;94229.56;;;4.00;78.20
82416;BME280;72058;47.782;10.618;2023-11-18T04:48:01;94228.47;;;3.96;79.03
82416;BME280;72058;47.782;10.618;2023-11-18T04:50:28;94225.63;;;4.18;78.01
82416;BME280;72058;47.782;10.618;2023-11-18T04:52:55;94238.66;;;3.89;79.52
82416;BME280;72058;47.782;10.618;2023-11-18T04:55:21;94232.19;;;3.90;79.43
82416;BME280;72058;47.782;10.618;2023-11-18T04:57:46;94228.28;;;4.08;78.70
82416;BME280;72058;47.782;10.618;2023-11-18T05:00:12;94220.22;;;4.13;78.46
82416;BME280;72058;47.782;10.618;2023-11-18T05:02:41;94228.53;;;4.11;78.75
82416;BME280;72058;47.782;10.618;2023-11-18T05:05:08;94231.97;;;3.97;79.37
82416;BME280;72058;47.782;10.618;2023-11-18T05:07:34;94230.91;;;4.03;78.99
82416;BME280;72058;47.782;10.618;2023-11-18T05:10:00;94236.59;;;4.01;79.21
82416;BME280;72058;47.782;10.618;2023-11-18T05:12:26;94230.97;;;4.13;78.76
82416;BME280;72058;47.782;10.618;2023-11-18T05:14:55;94233.84;;;3.96;79.35
82416;BME280;72058;47.782;10.618;2023-11-18T05:17:21;94234.97;;;4.00;79.45
82416;BME280;72058;47.782;10.618;2023-11-18T05:19:46;94222.56;;;3.99;80.06
82416;BME280;72058;47.782;10.618;2023-11-18T05:22:12;94222.00;;;3.97;79.63
82416;BME280;72058;47.782;10.618;2023-11-18T05:24:37;94218.69;;;3.85;80.09
82416;BME280;72058;47.782;10.618;2023-11-18T05:27:03;94222.25;;;3.91;80.11
82416;BME280;72058;47.782;10.618;2023-11-18T05:29:29;94218.75;;;3.95;80.21
82416;BME280;72058;47.782;10.618;2023-11-18T05:31:54;94220.94;;;3.98;79.75
82416;BME280;72058;47.782;10.618;2023-11-18T05:34:20;94228.69;;;3.90;80.05
82416;BME280;72058;47.782;10.618;2023-11-18T05:36:46;94222.81;;;3.93;80.29
82416;BME280;72058;47.782;10.618;2023-11-18T05:39:12;94217.69;;;3.96;79.98
82416;BME280;72058;47.782;10.618;2023-11-18T05:41:40;94225.50;;;3.93;80.22
82416;BME280;72058;47.782;10.618;2023-11-18T05:44:10;94217.63;;;3.86;80.31
82416;BME280;72058;47.782;10.618;2023-11-18T05:46:42;94217.41;;;3.93;80.28
82416;BME280;72058;47.782;10.618;2023-11-18T05:49:08;94218.75;;;3.90;80.37
82416;BME280;72058;47.782;10.618;2023-11-18T05:51:34;94215.53;;;3.93;80.12
82416;BME280;72058;47.782;10.618;2023-11-18T05:54:00;94219.91;;;4.04;79.56
82416;BME280;72058;47.782;10.618;2023-11-18T05:56:26;94221.53;;;4.10;79.42
82416;BME280;72058;47.782;10.618;2023-11-18T05:58:52;94211.63;;;4.21;78.74
82416;BME280;72058;47.782;10.618;2023-11-18T06:01:20;94218.84;;;4.10;79.14
82416;BME280;72058;47.782;10.618;2023-11-18T06:03:46;94220.75;;;4.15;79.14
82416;BME280;72058;47.782;10.618;2023-11-18T06:06:13;94226.72;;;4.17;79.09
82416;BME280;72058;47.782;10.618;2023-11-18T06:08:39;94236.41;;;4.18;78.96
82416;BME280;72058;47.782;10.618;2023-11-18T06:11:10;94224.53;;;4.19;78.58
82416;BME280;72058;47.782;10.618;2023-11-18T06:13:40;94218.31;;;4.08;79.26
82416;BME280;72058;47.782;10.618;2023-11-18T06:16:08;94227.41;;;4.02;79.53
82416;BME280;72058;47.782;10.618;2023-11-18T06:18:34;94233.34;;;3.99;79.34
82416;BME280;72058;47.782;10.618;2023-11-18T06:21:01;94225.84;;;4.06;79.24
82416;BME280;72058;47.782;10.618;2023-11-18T06:23:26;94230.66;;;4.04;79.10
82416;BME280;72058;47.782;10.618;2023-11-18T06:25:51;94213.75;;;4.09;78.80
82416;BME280;72058;47.782;10.618;2023-11-18T06:28:17;94219.16;;;4.14;78.85
82416;BME280;72058;47.782;10.618;2023-11-18T06:30:43;94217.88;;;4.27;77.91
82416;BME280;72058;47.782;10.618;2023-11-18T06:33:09;94213.50;;;4.15;78.52
82416;BME280;72058;47.782;10.618;2023-11-18T06:35:34;94215.63;;;4.13;78.76
82416;BME280;72058;47.782;10.618;2023-11-18T06:38:00;94221.84;;;4.14;78.56
82416;BME280;72058;47.782;10.618;2023-11-18T06:40:25;94221.25;;;4.07;78.95
82416;BME280;72058;47.782;10.618;2023-11-18T06:42:52;94223.44;;;4.10;78.53
82416;BME280;72058;47.782;10.618;2023-11-18T06:45:19;94211.31;;;4.12;78.42
82416;BME280;72058;47.782;10.618;2023-11-18T06:47:47;94214.28;;;4.11;79.12
82416;BME280;72058;47.782;10.618;2023-11-18T06:50:14;94222.06;;;4.07;79.03
82416;BME280;72058;47.782;10.618;2023-11-18T06:52:41;94215.38;;;4.10;78.78
82416;BME280;72058;47.782;10.618;2023-11-18T06:55:10;94221.25;;;4.07;79.01
82416;BME280;72058;47.782;10.618;2023-11-18T06:57:36;94216.13;;;4.05;79.33
82416;BME280;72058;47.782;10.618;2023-11-18T07:00:03;94222.03;;;4.02;79.35
82416;BME280;72058;47.782;10.618;2023-11-18T07:02:33;94227.63;;;3.91;79.65
82416;BME280;72058;47.782;10.618;2023-11-18T07:04:59;94220.13;;;3.93;79.52
82416;BME280;72058;47.782;10.618;2023-11-18T07:07:24;94223.06;;;3.91;79.46
82416;BME280;72058;47.782;10.618;2023-11-18T07:09:49;94219.56;;;3.91;79.00
82416;BME280;72058;47.782;10.618;2023-11-18T07:12:15;94218.69;;;3.85;79.39
82416;BME280;72058;47.782;10.618;2023-11-18T07:14:40;94220.13;;;3.93;79.29
82416;BME280;72058;47.782;10.618;2023-11-18T07:17:05;94230.34;;;3.96;79.21
82416;BME280;72058;47.782;10.618;2023-11-18T07:19:31;94239.47;;;3.90;79.39
82416;BME280;72058;47.782;10.618;2023-11-18T07:21:58;94231.09;;;3.86;79.31
82416;BME280;72058;47.782;10.618;2023-11-18T07:24:24;94242.72;;;3.92;79.20
82416;BME280;72058;47.782;10.618;2023-11-18T07:26:59;94244.75;;;3.74;80.12
82416;BME280;72058;47.782;10.618;2023-11-18T07:29:25;94254.16;;;3.77;79.88
82416;BME280;72058;47.782;10.618;2023-11-18T07:31:52;94246.53;;;4.01;79.29
82416;BME280;72058;47.782;10.618;2023-11-18T07:34:20;94243.00;;;4.42;77.83
82416;BME280;72058;47.782;10.618;2023-11-18T07:36:46;94245.94;;;4.46;77.74
82416;BME280;72058;47.782;10.618;2023-11-18T07:39:13;94242.63;;;4.29;78.13
82416;BME280;72058;47.782;10.618;2023-11-18T07:41:49;94236.59;;;4.58;76.90
82416;BME280;72058;47.782;10.618;2023-11-18T07:44:14;94235.78;;;4.63;76.15
82416;BME280;72058;47.782;10.618;2023-11-18T07:46:41;94236.34;;;4.65;76.38
82416;BME280;72058;47.782;10.618;2023-11-18T07:49:08;94244.16;;;4.67;76.85
82416;BME280;72058;47.782;10.618;2023-11-18T07:51:34;94236.91;;;4.77;76.99
82416;BME280;72058;47.782;10.618;2023-11-18T07:53:59;94243.13;;;4.88;76.10
82416;BME280;72058;47.782;10.618;2023-11-18T07:56:24;94251.00;;;5.05;75.40
82416;BME280;72058;47.782;10.618;2023-11-18T07:58:52;94238.06;;;5.02;75.53
82416;BME280;72058;47.782;10.618;2023-11-18T08:01:17;94235.38;;;5.07;75.50
82416;BME280;72058;47.782;10.618;2023-11-18T08:03:43;94235.66;;;5.10;75.37
82416;BME280;72058;47.782;10.618;2023-11-18T08:06:10;94239.94;;;5.11;74.67
82416;BME280;72058;47.782;10.618;2023-11-18T08:08:37;94252.66;;;5.21;74.55
82416;BME280;72058;47.782;10.618;2023-11-18T08:11:04;94253.72;;;5.20;74.91
82416;BME280;72058;47.782;10.618;2023-11-18T08:13:30;94262.63;;;5.20;73.89
82416;BME280;72058;47.782;10.618;2023-11-18T08:15:55;94260.75;;;5.16;74.40
82416;BME280;72058;47.782;10.618;2023-11-18T08:18:22;94246.72;;;5.24;74.34
82416;BME280;72058;47.782;10.618;2023-11-18T08:20:49;94244.03;;;5.29;74.12
82416;BME280;72058;47.782;10.618;2023-11-18T08:23:15;94238.94;;;5.43;73.80
82416;BME280;72058;47.782;10.618;2023-11-18T08:25:40;94247.81;;;5.33;74.09
82416;BME280;72058;47.782;10.618;2023-11-18T08:28:07;94233.22;;;5.14;75.35
82416;BME280;72058;47.782;10.618;2023-11-18T08:30:33;94224.91;;;5.41;74.40
82416;BME280;72058;47.782;10.618;2023-11-18T08:33:01;94232.16;;;5.30;74.79
82416;BME280;72058;47.782;10.618;2023-11-18T08:35:29;94244.03;;;5.29;74.97
82416;BME280;72058;47.782;10.618;2023-11-18T08:37:55;94229.50;;;5.35;73.91
82416;BME280;72058;47.782;10.618;2023-11-18T08:40:20;94231.63;;;5.53;73.48
82416;BME280;72058;47.782;10.618;2023-11-18T08:42:51;94232.19;;;5.35;74.38
82416;BME280;72058;47.782;10.618;2023-11-18T08:45:18;94219.75;;;5.39;73.96
82416;BME280;72058;47.782;10.618;2023-11-18T08:47:48;94227.84;;;5.44;73.97
82416;BME280;72058;47.782;10.618;2023-11-18T08:50:15;94233.53;;;5.58;73.32
82416;BME280;72058;47.782;10.618;2023-11-18T08:52:44;94226.25;;;5.58;73.90
82416;BME280;72058;47.782;10.618;2023-11-18T08:55:15;94228.94;;;5.58;73.83
82416;BME280;72058;47.782;10.618;2023-11-18T08:57:47;94226.78;;;5.65;73.10
82416;BME280;72058;47.782;10.618;2023-11-18T09:00:17;94224.09;;;5.65;73.57
82416;BME280;72058;47.782;10.618;2023-11-18T09:03:02;94230.28;;;5.76;73.32
82416;BME280;72058;47.782;10.618;2023-11-18T09:05:32;94225.97;;;5.65;73.46
82416;BME280;72058;47.782;10.618;2023-11-18T09:07:58;94222.72;;;5.73;73.35
82416;BME280;72058;47.782;10.618;2023-11-18T09:10:26;94224.63;;;5.72;73.32
82416;BME280;72058;47.782;10.618;2023-11-18T09:12:53;94223.56;;;5.68;72.19
82416;BME280;72058;47.782;10.618;2023-11-18T09:15:19;94241.34;;;5.75;72.36
82416;BME280;72058;47.782;10.618;2023-11-18T09:17:50;94233.78;;;5.82;71.91
82416;BME280;72058;47.782;10.618;2023-11-18T09:20:16;94226.22;;;5.79;72.29
82416;BME280;72058;47.782;10.618;2023-11-18T09:22:45;94221.38;;;5.86;71.58
82416;BME280;72058;47.782;10.618;2023-11-18T09:25:11;94223.28;;;5.90;70.75
82416;BME280;72058;47.782;10.618;2023-11-18T09:27:36;94221.66;;;5.89;71.09
82416;BME280;72058;47.782;10.618;2023-11-18T09:30:04;94229.50;;;5.91;70.05
82416;BME280;72058;47.782;10.618;2023-11-18T09:32:38;94222.47;;;5.90;70.34
82416;BME280;72058;47.782;10.618;2023-11-18T09:35:04;94228.66;;;5.95;68.85
82416;BME280;72058;47.782;10.618;2023-11-18T09:37:34;94228.38;;;5.82;70.48
82416;BME280;72058;47.782;10.618;2023-11-18T09:40:00;94238.94;;;5.93;70.97
82416;BME280;72058;47.782;10.618;2023-11-18T09:42:38;94235.97;;;6.00;71.19
82416;BME280;72058;47.782;10.618;2023-11-18T09:45:05;94231.38;;;6.00;71.51
82416;BME280;72058;47.782;10.618;2023-11-18T09:47:42;94224.84;;;6.12;71.48
82416;BME280;72058;47.782;10.618;2023-11-18T09:50:10;94212.97;;;6.13;71.36
82416;BME280;72058;47.782;10.618;2023-11-18T09:52:42;94203.22;;;6.27;69.36
82416;BME280;72058;47.782;10.618;2023-11-18T09:55:21;94210.53;;;6.26;68.66
82416;BME280;72058;47.782;10.618;2023-11-18T09:57:55;94218.31;;;6.33;68.43
82416;BME280;72058;47.782;10.618;2023-11-18T10:00:26;94211.84;;;6.34;67.86
82416;BME280;72058;47.782;10.618;2023-11-18T10:02:58;94212.91;;;6.38;68.09
82416;BME280;72058;47.782;10.618;2023-11-18T10:05:26;94218.06;;;6.34;67.67
82416;BME280;72058;47.782;10.618;2023-11-18T10:07:52;94218.84;;;6.40;68.14
82416;BME280;72058;47.782;10.618;2023-11-18T10:10:21;94216.13;;;6.40;67.91
82416;BME280;72058;47.782;10.618;2023-11-18T10:12:47;94209.88;;;6.55;64.73
82416;BME280;72058;47.782;10.618;2023-11-18T10:15:23;94209.09;;;6.49;64.94
82416;BME280;72058;47.782;10.618;2023-11-18T10:17:50;94217.75;;;6.41;68.72
82416;BME280;72058;47.782;10.618;2023-11-18T10:20:47;94211.81;;;6.39;67.13
82416;BME280;72058;47.782;10.618;2023-11-18T10:23:14;94209.09;;;6.49;65.81
82416;BME280;72058;47.782;10.618;2023-11-18T10:25:47;94201.00;;;6.44;66.15
82416;BME280;72058;47.782;10.618;2023-11-18T10:28:29;94207.16;;;6.55;66.35
82416;BME280;72058;47.782;10.618;2023-11-18T10:30:59;94202.31;;;6.52;66.19
82416;BME280;72058;47.782;10.618;2023-11-18T10:33:29;94196.88;;;6.57;65.75
82416;BME280;72058;47.782;10.618;2023-11-18T10:35:59;94195.78;;;6.63;66.97
82416;BME280;72058;47.782;10.618;2023-11-18T10:38:32;94188.47;;;6.68;66.78
82416;BME280;72058;47.782;10.618;2023-11-18T10:40:59;94186.56;;;6.69;66.60
82416;BME280;72058;47.782;10.618;2023-11-18T10:43:27;94186.28;;;6.70;65.62
82416;BME280;72058;47.782;10.618;2023-11-18T10:46:06;94194.84;;;6.88;64.04
82416;BME280;72058;47.782;10.618;2023-11-18T10:51:13;94196.81;;;6.77;63.43
82416;BME280;72058;47.782;10.618;2023-11-18T10:53:46;94195.69;;;6.83;64.02
82416;BME280;72058;47.782;10.618;2023-11-18T10:56:26;94209.44;;;6.86;64.35
82416;BME280;72058;47.782;10.618;2023-11-18T10:58:56;94198.94;;;6.85;63.36
82416;BME280;72058;47.782;10.618;2023-11-18T11:01:33;94198.88;;;6.90;63.29
82416;BME280;72058;47.782;10.618;2023-11-18T11:04:00;94189.19;;;6.84;61.66
82416;BME280;72058;47.782;10.618;2023-11-18T11:06:29;94196.78;;;6.82;63.54
82416;BME280;72058;47.782;10.618;2023-11-18T11:08:58;94182.66;;;6.90;64.11
82416;BME280;72058;47.782;10.618;2023-11-18T11:11:25;94194.28;;;6.91;63.66
82416;BME280;72058;47.782;10.618;2023-11-18T11:14:00;94204.28;;;6.90;63.14
82416;BME280;72058;47.782;10.618;2023-11-18T11:16:41;94210.47;;;6.96;62.17
82416;BME280;72058;47.782;10.618;2023-11-18T11:19:33;94195.63;;;6.93;61.33
82416;BME280;72058;47.782;10.618;2023-11-18T11:22:07;94199.41;;;6.92;61.28
82416;BME280;72058;47.782;10.618;2023-11-18T11:27:27;94203.22;;;6.91;61.48
82416;BME280;72058;47.782;10.618;2023-11-18T11:30:11;94203.16;;;6.96;61.00
82416;BME280;72058;47.782;10.618;2023-11-18T11:32:52;94205.28;;;7.04;61.52
82416;BME280;72058;47.782;10.618;2023-11-18T11:35:30;94207.44;;;7.07;60.42
82416;BME280;72058;47.782;10.618;2023-11-18T11:37:56;94201.19;;;7.12;60.19
82416;BME280;72058;47.782;10.618;2023-11-18T11:40:31;94199.81;;;7.14;60.03
82416;BME280;72058;47.782;10.618;2023-11-18T11:42:58;94198.78;;;7.10;59.28
82416;BME280;72058;47.782;10.618;2023-11-18T11:45:27;94180.94;;;7.09;59.17
82416;BME280;72058;47.782;10.618;2023-11-18T11:47:57;94187.66;;;7.12;58.03
82416;BME280;72058;47.782;10.618;2023-11-18T11:50:59;94190.69;;;7.05;57.97
82416;BME280;72058;47.782;10.618;2023-11-18T11:53:29;94183.09;;;7.07;58.91
82416;BME280;72058;47.782;10.618;2023-11-18T11:55:56;94174.66;;;7.14;58.63
82416;BME280;72058;47.782;10.618;2023-11-18T11:58:35;94180.34;;;7.12;58.62
82416;BME280;72058;47.782;10.618;2023-11-18T12:03:43;94169.78;;;7.16;58.29
82416;BME280;72058;47.782;10.618;2023-11-18T12:06:09;94180.13;;;7.09;58.11
82416;BME280;72058;47.782;10.618;2023-11-18T12:08:35;94176.00;;;7.16;58.30
82416;BME280;72058;47.782;10.618;2023-11-18T12:11:02;94170.59;;;7.11;58.60
82416;BME280;72058;47.782;10.618;2023-11-18T12:13:28;94167.41;;;7.04;58.81
82416;BME280;72058;47.782;10.618;2023-11-18T12:15:57;94159.31;;;7.04;59.55
82416;BME280;72058;47.782;10.618;2023-11-18T12:18:23;94156.59;;;7.04;60.03
82416;BME280;72058;47.782;10.618;2023-11-18T12:20:52;94163.56;;;7.15;60.21
82416;BME280;72058;47.782;10.618;2023-11-18T12:23:20;94151.66;;;7.11;60.87
82416;BME280;72058;47.782;10.618;2023-11-18T12:25:53;94139.53;;;7.09;60.77
82416;BME280;72058;47.782;10.618;2023-11-18T12:28:28;94139.16;;;7.20;60.47
82416;BME280;72058;47.782;10.618;2023-11-18T12:30:56;94136.56;;;7.10;60.38
82416;BME280;72058;47.782;10.618;2023-11-18T12:33:23;94143.53;;;7.16;60.84
82416;BME280;72058;47.782;10.618;2023-11-18T12:40:55;94143.75;;;7.25;60.22
82416;BME280;72058;47.782;10.618;2023-11-18T12:49:05;94140.28;;;7.19;61.29
82416;BME280;72058;47.782;10.618;2023-11-18T12:51:32;94134.81;;;7.24;61.42
82416;BME280;72058;47.782;10.618;2023-11-18T12:54:01;94134.22;;;7.33;61.23
82416;BME280;72058;47.782;10.618;2023-11-18T12:56:28;94127.66;;;7.39;60.60
82416;BME280;72058;47.782;10.618;2023-11-18T12:58:55;94131.22;;;7.34;60.46
82416;BME280;72058;47.782;10.618;2023-11-18T13:01:21;94119.25;;;7.40;59.97
82416;BME280;72058;47.782;10.618;2023-11-18T13:03:47;94110.94;;;7.32;60.39
82416;BME280;72058;47.782;10.618;2023-11-18T13:06:12;94113.19;;;7.24;60.61
82416;BME280;72058;47.782;10.618;2023-11-18T13:08:40;94114.91;;;7.10;59.40
82416;BME280;72058;47.782;10.618;2023-11-18T13:11:05;94104.41;;;7.04;60.65
82416;BME280;72058;47.782;10.618;2023-11-18T13:13:37;94101.13;;;7.07;60.61
82416;BME280;72058;47.782;10.618;2023-11-18T13:16:03;94103.22;;;7.15;59.88
82416;BME280;72058;47.782;10.618;2023-11-18T13:18:53;94096.41;;;7.22;59.72
82416;BME280;72058;47.782;10.618;2023-11-18T13:21:21;94094.50;;;7.23;60.45
82416;BME280;72058;47.782;10.618;2023-11-18T13:23:49;94097.28;;;7.18;59.30